Time;durP1;ratioP1;P1;durP2;ratioP2;P2;SDS_P1;SDS_P2;PMS_P1;PMS_P2;Temp;Humidity;BMP_temperature;BMP_pressure;BME280_temperature;BME280_humidity;BME280_pressure;Samples;Min_cycle;Max_cycle;Signal;HPM_P1;HPM_P2
2022/07/07 00:01:41;;;;;;;2.83;1.47;;;;;;;23.60;50.61;100942.03;5088430;28;20174;-63
2022/07/07 00:04:08;;;;;;;6.13;1.70;;;;;;;23.59;50.44;100935.41;5091539;28;20175;-63
2022/07/07 00:06:34;;;;;;;7.43;1.63;;;;;;;23.58;50.43;100936.66;5093190;28;20201;-63
2022/07/07 00:08:59;;;;;;;3.63;1.60;;;;;;;23.58;50.33;100939.53;5090033;28;20476;-63
2022/07/07 00:11:25;;;;;;;4.80;1.87;;;;;;;23.59;50.00;100941.19;5092399;28;20169;-63
2022/07/07 00:13:50;;;;;;;3.87;1.70;;;;;;;23.61;50.11;100929.25;5091773;28;20226;-63
2022/07/07 00:16:16;;;;;;;2.70;1.47;;;;;;;23.60;50.23;100927.59;5093660;28;20186;-63
2022/07/07 00:18:41;;;;;;;2.40;1.47;;;;;;;23.61;50.38;100935.03;5093257;28;20281;-63
2022/07/07 00:21:07;;;;;;;3.83;1.67;;;;;;;23.60;50.19;100928.44;5093135;28;20182;-63
2022/07/07 00:23:32;;;;;;;3.63;1.73;;;;;;;23.61;50.02;100920.59;5092820;28;20201;-63
2022/07/07 00:25:57;;;;;;;2.63;1.50;;;;;;;23.61;50.51;100921.44;5093694;28;20196;-63
2022/07/07 00:28:23;;;;;;;4.03;1.80;;;;;;;23.61;50.27;100921.44;5093304;28;20174;-63
2022/07/07 00:30:48;;;;;;;4.10;1.50;;;;;;;23.61;50.14;100923.50;5092317;28;20181;-63
2022/07/07 00:33:14;;;;;;;2.77;1.33;;;;;;;23.60;50.28;100913.19;5093632;28;20194;-63
2022/07/07 00:35:40;;;;;;;2.90;1.73;;;;;;;23.59;50.49;100906.59;5092933;28;20189;-63
2022/07/07 00:38:06;;;;;;;3.30;1.50;;;;;;;23.59;49.74;100911.53;5093306;28;20777;-63
2022/07/07 00:40:31;;;;;;;4.70;1.63;;;;;;;23.58;50.19;100904.94;5093289;28;20578;-63
2022/07/07 00:42:57;;;;;;;4.30;1.70;;;;;;;23.56;49.80;100900.81;5093040;28;20702;-63
2022/07/07 00:45:23;;;;;;;3.13;1.60;;;;;;;23.54;49.44;100904.09;5093647;28;20181;-63
2022/07/07 00:47:49;;;;;;;3.70;1.80;;;;;;;23.54;49.77;100903.28;5092287;28;20515;-63
2022/07/07 00:50:14;;;;;;;6.03;1.80;;;;;;;23.51;49.42;100895.41;5092832;28;20174;-63
2022/07/07 00:52:40;;;;;;;3.60;1.93;;;;;;;23.50;49.82;100903.25;5089734;28;20173;-63
2022/07/07 00:55:08;;;;;;;4.90;1.90;;;;;;;23.49;49.86;100903.66;5072362;28;20199;-63
2022/07/07 00:57:33;;;;;;;4.13;1.77;;;;;;;23.49;50.13;100897.88;5072246;28;20205;-63
2022/07/07 00:59:59;;;;;;;4.37;1.80;;;;;;;23.48;49.58;100899.91;5071557;28;20440;-63
2022/07/07 01:02:27;;;;;;;8.37;1.70;;;;;;;23.47;48.89;100898.28;5071472;28;20178;-63
2022/07/07 01:04:53;;;;;;;3.40;1.83;;;;;;;23.46;49.24;100890.88;5069997;28;20417;-63
2022/07/07 01:07:18;;;;;;;3.93;1.80;;;;;;;23.43;49.07;100902.38;5088767;28;20522;-63
2022/07/07 01:09:44;;;;;;;4.03;1.70;;;;;;;23.39;49.28;100896.56;5089946;28;20234;-63
2022/07/07 01:12:09;;;;;;;4.53;2.13;;;;;;;23.37;48.79;100899.03;5090251;28;20205;-63
2022/07/07 01:14:34;;;;;;;3.97;1.63;;;;;;;23.37;48.67;100893.25;5091736;28;20202;-63
2022/07/07 01:17:00;;;;;;;6.70;1.80;;;;;;;23.40;48.83;100900.28;5090863;28;20538;-63
2022/07/07 01:19:25;;;;;;;7.70;1.57;;;;;;;23.39;49.12;100895.75;5092472;28;20170;-63
2022/07/07 01:21:58;;;;;;;4.13;1.83;;;;;;;23.40;49.06;100889.59;5092483;28;20641;-63
2022/07/07 01:24:25;;;;;;;7.53;2.03;;;;;;;23.41;49.25;100885.47;5090376;28;20242;-63
2022/07/07 01:27:06;;;;;;;3.80;1.30;;;;;;;23.42;48.79;100883.41;5092073;28;20409;-63
2022/07/07 01:29:40;;;;;;;4.40;2.10;;;;;;;23.41;49.10;100876.81;5092244;28;20744;-63
2022/07/07 01:32:07;;;;;;;3.23;1.60;;;;;;;23.40;48.86;100880.94;5092665;28;20417;-62
2022/07/07 01:34:33;;;;;;;3.87;1.90;;;;;;;23.40;48.88;100872.28;5092250;28;20861;-63
2022/07/07 01:36:58;;;;;;;5.90;2.00;;;;;;;23.39;48.89;100887.09;5092185;28;20417;-63
2022/07/07 01:39:24;;;;;;;5.47;1.50;;;;;;;23.35;48.64;100878.44;5091671;28;20166;-63
2022/07/07 01:41:49;;;;;;;2.67;1.50;;;;;;;23.35;48.97;100878.44;5091398;28;20163;-63
2022/07/07 01:44:14;;;;;;;7.43;1.73;;;;;;;23.35;48.69;100861.16;5091606;28;20227;-63
2022/07/07 01:46:40;;;;;;;3.93;1.70;;;;;;;23.37;48.50;100860.72;5091473;28;20683;-63
2022/07/07 01:49:05;;;;;;;5.53;2.20;;;;;;;23.36;49.00;100859.91;5092130;28;20623;-63
2022/07/07 01:51:31;;;;;;;3.40;1.93;;;;;;;23.38;49.37;100868.16;5092072;28;20174;-63
2022/07/07 01:53:56;;;;;;;7.47;2.27;;;;;;;23.36;48.67;100874.31;5079060;28;20203;-63
2022/07/07 01:56:21;;;;;;;6.97;1.70;;;;;;;23.36;48.96;100880.09;5070852;28;20175;-63
2022/07/07 01:58:47;;;;;;;2.83;2.03;;;;;;;23.34;48.72;100882.50;5075546;28;20221;-63
2022/07/07 02:01:12;;;;;;;3.67;1.80;;;;;;;23.30;48.63;100875.09;5091285;28;20178;-63
2022/07/07 02:03:38;;;;;;;4.30;2.30;;;;;;;23.29;48.17;100880.00;5091925;28;20166;-63
2022/07/07 02:06:03;;;;;;;5.50;2.00;;;;;;;23.29;48.33;100885.78;5091774;28;20585;-63
2022/07/07 02:08:29;;;;;;;4.07;1.93;;;;;;;23.29;48.03;100887.84;5090752;28;20772;-63
2022/07/07 02:11:12;;;;;;;3.40;2.13;;;;;;;23.28;48.58;100883.31;5090187;28;20170;-63
2022/07/07 02:13:45;;;;;;;3.97;1.80;;;;;;;23.27;48.26;100888.22;5087447;28;20221;-63
2022/07/07 02:16:12;;;;;;;3.73;1.90;;;;;;;23.29;48.35;100885.78;5088083;28;20412;-63
2022/07/07 02:18:38;;;;;;;4.00;1.90;;;;;;;23.30;48.30;100881.69;5087891;28;20400;-63
2022/07/07 02:21:04;;;;;;;5.57;2.23;;;;;;;23.30;48.62;100886.59;5086616;28;20501;-63
2022/07/07 02:23:30;;;;;;;6.40;2.00;;;;;;;23.29;48.33;100897.28;5088094;28;20413;-63
2022/07/07 02:25:56;;;;;;;3.63;1.90;;;;;;;23.28;47.96;100895.66;5089477;28;20511;-63
2022/07/07 02:28:23;;;;;;;5.07;1.83;;;;;;;23.28;47.78;100889.06;5089762;28;20228;-63
2022/07/07 02:30:49;;;;;;;7.67;2.30;;;;;;;23.28;48.27;100886.19;5087989;28;20200;-63
2022/07/07 02:33:14;;;;;;;2.60;1.83;;;;;;;23.26;48.44;100874.22;5078400;28;20425;-63
2022/07/07 02:35:40;;;;;;;5.73;1.90;;;;;;;23.27;48.21;100878.75;5069362;28;21376;-63
2022/07/07 02:38:05;;;;;;;5.00;2.20;;;;;;;23.23;48.26;100890.25;5069070;28;20182;-63
2022/07/07 02:40:31;;;;;;;3.30;1.87;;;;;;;23.20;47.84;100882.44;5069213;28;20194;-63
2022/07/07 02:42:57;;;;;;;4.00;1.70;;;;;;;23.19;47.88;100880.75;5082341;28;20586;-63
2022/07/07 02:45:22;;;;;;;3.57;1.60;;;;;;;23.16;47.88;100881.53;5089458;28;20173;-63
2022/07/07 02:47:47;;;;;;;3.00;1.80;;;;;;;23.19;48.19;100879.94;5090101;28;20178;-63
2022/07/07 02:50:13;;;;;;;6.13;2.10;;;;;;;23.16;47.65;100884.41;5090430;28;20645;-63
2022/07/07 02:52:39;;;;;;;4.77;2.13;;;;;;;23.16;48.21;100881.53;5090614;28;20609;-63
2022/07/07 02:55:05;;;;;;;3.20;1.80;;;;;;;23.15;47.86;100870.41;5090350;28;20467;-63
2022/07/07 02:57:31;;;;;;;5.90;2.37;;;;;;;23.16;48.70;100870.00;5090734;28;20604;-63
2022/07/07 02:59:56;;;;;;;3.60;2.07;;;;;;;23.14;48.14;100869.56;5091402;28;20401;-63
2022/07/07 03:02:21;;;;;;;4.93;2.00;;;;;;;23.15;48.07;100858.88;5091391;28;20191;-63
2022/07/07 03:04:48;;;;;;;3.47;1.70;;;;;;;23.14;47.86;100858.03;5090595;28;20182;-63
2022/07/07 03:07:13;;;;;;;5.70;2.17;;;;;;;23.17;47.86;100867.94;5090031;28;20697;-63
2022/07/07 03:09:39;;;;;;;3.27;1.80;;;;;;;23.16;47.65;100864.25;5090811;28;20411;-63
2022/07/07 03:12:05;;;;;;;3.23;1.80;;;;;;;23.16;48.21;100869.16;5089749;28;20170;-63
2022/07/07 03:14:30;;;;;;;7.80;2.00;;;;;;;23.13;47.98;100865.03;5090288;28;20191;-63
2022/07/07 03:16:55;;;;;;;3.60;1.80;;;;;;;23.16;48.02;100864.25;5090229;28;20170;-63
2022/07/07 03:19:21;;;;;;;9.43;2.33;;;;;;;23.17;48.12;100863.00;5088834;28;20303;-63
2022/07/07 03:21:46;;;;;;;6.23;2.10;;;;;;;23.16;47.85;100851.88;5070541;28;20641;-63
2022/07/07 03:24:12;;;;;;;4.20;1.70;;;;;;;23.15;48.11;100844.47;5085118;28;20195;-63
2022/07/07 03:26:37;;;;;;;4.40;1.93;;;;;;;23.15;48.21;100867.53;5090475;28;20174;-63
2022/07/07 03:29:02;;;;;;;5.23;2.00;;;;;;;23.17;48.11;100867.94;5090225;28;20177;-63
2022/07/07 03:31:28;;;;;;;3.80;2.07;;;;;;;23.16;48.19;100864.25;5090782;28;20179;-63
2022/07/07 03:33:53;;;;;;;6.40;2.57;;;;;;;23.16;48.16;100864.25;5089429;28;20194;-63
2022/07/07 03:36:19;;;;;;;5.87;2.17;;;;;;;23.18;48.54;100861.00;5088967;28;20193;-63
2022/07/07 03:38:44;;;;;;;3.13;1.80;;;;;;;23.18;48.38;100861.00;5088935;28;20228;-63
2022/07/07 03:41:10;;;;;;;4.70;1.73;;;;;;;23.18;48.29;100856.03;5088337;28;20655;-63
2022/07/07 03:43:36;;;;;;;5.00;1.90;;;;;;;23.18;48.67;100849.47;5088639;28;20166;-63
2022/07/07 03:46:01;;;;;;;5.30;1.80;;;;;;;23.18;48.62;100849.47;5088225;28;20416;-63
2022/07/07 03:48:29;;;;;;;3.20;1.90;;;;;;;23.18;48.60;100844.53;5088112;28;20213;-63
2022/07/07 03:50:54;;;;;;;5.70;1.93;;;;;;;23.18;48.06;100846.59;5087508;28;20699;-63
2022/07/07 03:53:20;;;;;;;5.20;1.83;;;;;;;23.16;48.50;100852.72;5090062;28;20423;-63
2022/07/07 03:55:45;;;;;;;2.90;1.87;;;;;;;23.15;48.24;100845.31;5090123;28;20178;-63
2022/07/07 03:58:10;;;;;;;3.53;1.93;;;;;;;23.14;47.90;100849.38;5089664;28;20257;-63
2022/07/07 04:00:36;;;;;;;4.97;1.80;;;;;;;23.12;47.91;100843.22;5070876;28;20186;-63
2022/07/07 04:03:01;;;;;;;4.70;2.47;;;;;;;23.10;47.72;100844.84;5089969;28;20178;-63
2022/07/07 04:05:27;;;;;;;2.90;1.80;;;;;;;23.11;47.88;100843.59;5090219;28;20162;-63
2022/07/07 04:07:52;;;;;;;3.83;1.90;;;;;;;23.11;48.24;100846.50;5093129;28;20279;-63
2022/07/07 04:10:18;;;;;;;4.90;2.10;;;;;;;23.11;48.18;100843.59;5092966;28;20166;-63
2022/07/07 04:12:43;;;;;;;5.50;1.97;;;;;;;23.12;48.45;100845.25;5091615;28;20178;-63
2022/07/07 04:15:09;;;;;;;3.97;2.10;;;;;;;23.11;47.98;100853.09;5092056;28;20209;-63
2022/07/07 04:17:35;;;;;;;4.03;2.00;;;;;;;23.10;47.58;100847.72;5091373;28;20522;-63
2022/07/07 04:20:01;;;;;;;4.60;1.80;;;;;;;23.03;47.85;100854.25;5093215;28;20174;-63
2022/07/07 04:22:26;;;;;;;2.97;1.70;;;;;;;23.01;47.42;100855.88;5091971;28;20182;-63
2022/07/07 04:24:52;;;;;;;4.37;1.60;;;;;;;22.99;47.63;100858.34;5093798;28;20413;-63
2022/07/07 04:27:17;;;;;;;6.53;1.73;;;;;;;22.99;47.83;100853.41;5093176;28;20522;-63
2022/07/07 04:29:43;;;;;;;3.83;1.73;;;;;;;22.96;47.40;100857.06;5093849;28;20179;-63
2022/07/07 04:32:08;;;;;;;5.17;2.00;;;;;;;22.97;47.55;100849.28;5093307;28;20181;-63
2022/07/07 04:34:34;;;;;;;4.43;2.20;;;;;;;22.92;47.65;100856.22;5093373;28;20198;-63
2022/07/07 04:36:59;;;;;;;2.97;1.50;;;;;;;22.89;47.82;100859.06;5093279;28;20506;-63
2022/07/07 04:39:25;;;;;;;4.20;2.03;;;;;;;22.88;47.31;100852.47;5093201;28;20177;-63
2022/07/07 04:41:50;;;;;;;2.53;1.47;;;;;;;22.87;47.72;100855.75;5093039;28;20637;-63
2022/07/07 04:44:15;;;;;;;4.07;2.07;;;;;;;22.87;47.22;100853.69;5092907;28;20170;-63
2022/07/07 04:46:41;;;;;;;5.07;2.13;;;;;;;22.88;47.13;100860.28;5092865;28;20166;-63
2022/07/07 04:49:06;;;;;;;4.70;1.93;;;;;;;22.90;47.39;100858.66;5093331;28;20522;-63
2022/07/07 04:51:32;;;;;;;5.37;2.00;;;;;;;22.89;47.11;100864.81;5093186;28;20170;-63
2022/07/07 04:53:57;;;;;;;3.83;2.40;;;;;;;22.91;47.35;100863.19;5078333;28;20203;-63
2022/07/07 04:56:23;;;;;;;3.73;1.90;;;;;;;22.86;47.49;100865.59;5086130;28;20236;-63
2022/07/07 04:58:48;;;;;;;3.40;1.77;;;;;;;22.82;47.34;100864.75;5091004;28;20264;-63
2022/07/07 05:01:14;;;;;;;6.20;2.10;;;;;;;22.78;47.60;100852.38;5090342;28;20190;-63
2022/07/07 05:03:39;;;;;;;4.40;2.20;;;;;;;22.77;47.33;100856.50;5090122;28;20550;-63
2022/07/07 05:06:05;;;;;;;4.63;2.03;;;;;;;22.77;47.60;100848.66;5091052;28;20580;-63
2022/07/07 05:08:30;;;;;;;3.13;1.70;;;;;;;22.77;47.56;100848.66;5091202;28;20229;-63
2022/07/07 05:10:56;;;;;;;4.43;1.90;;;;;;;22.75;47.67;100842.47;5091329;28;20269;-63
2022/07/07 05:13:22;;;;;;;4.13;2.10;;;;;;;22.75;47.88;100842.47;5091819;28;20530;-63
2022/07/07 05:15:48;;;;;;;4.00;1.90;;;;;;;22.72;47.78;100842.47;5091394;28;20170;-63
2022/07/07 05:18:15;;;;;;;6.20;1.83;;;;;;;22.73;47.94;100838.34;5090781;28;20178;-63
2022/07/07 05:20:40;;;;;;;4.73;1.80;;;;;;;22.60;47.72;100839.84;5090475;28;20565;-63
2022/07/07 05:23:06;;;;;;;3.67;2.00;;;;;;;22.69;47.70;100846.13;5091062;28;20907;-63
2022/07/07 05:25:31;;;;;;;3.60;1.90;;;;;;;22.69;47.66;100841.19;5091306;28;20171;-63
2022/07/07 05:27:56;;;;;;;4.63;2.10;;;;;;;22.69;48.07;100838.31;5091279;28;20541;-63
2022/07/07 05:30:22;;;;;;;6.13;1.83;;;;;;;22.71;47.50;100847.38;5092029;28;20186;-63
2022/07/07 05:32:47;;;;;;;3.40;1.53;;;;;;;22.71;47.92;100843.66;5092455;28;20574;-63
2022/07/07 05:35:13;;;;;;;3.93;1.77;;;;;;;22.64;47.83;100850.19;5091746;28;20206;-63
2022/07/07 05:37:40;;;;;;;4.63;1.73;;;;;;;22.67;48.01;100854.34;5092423;28;20390;-63
2022/07/07 05:40:07;;;;;;;4.53;1.97;;;;;;;22.67;48.25;100852.25;5091390;28;20225;-63
2022/07/07 05:42:32;;;;;;;3.93;1.60;;;;;;;22.59;48.36;100849.72;5082319;28;20470;-63
2022/07/07 05:44:58;;;;;;;6.50;2.07;;;;;;;22.61;48.36;100853.00;5092142;28;20788;-63
2022/07/07 05:47:23;;;;;;;5.17;2.17;;;;;;;22.63;48.33;100854.28;5091813;28;20185;-63
2022/07/07 05:49:49;;;;;;;4.33;2.13;;;;;;;22.54;48.13;100853.78;5092134;28;20546;-63
2022/07/07 05:52:14;;;;;;;4.83;1.90;;;;;;;22.63;48.44;100845.63;5092130;28;20185;-63
2022/07/07 05:54:40;;;;;;;5.87;1.90;;;;;;;22.66;48.02;100859.25;5086165;28;20210;-63
2022/07/07 05:57:06;;;;;;;5.27;2.00;;;;;;;22.56;48.22;100862.00;5091704;28;20181;-63
2022/07/07 05:59:32;;;;;;;5.17;2.40;;;;;;;22.51;48.71;100866.06;5090907;28;20628;-63
2022/07/07 06:01:57;;;;;;;3.23;1.80;;;;;;;22.40;48.78;100856.47;5091674;28;20428;-63
2022/07/07 06:04:23;;;;;;;6.13;2.07;;;;;;;22.30;48.58;100865.81;5091347;28;20634;-63
2022/07/07 06:06:49;;;;;;;2.90;1.70;;;;;;;22.41;48.49;100869.63;5091571;28;20574;-63
2022/07/07 06:09:14;;;;;;;3.33;1.70;;;;;;;22.35;48.77;100867.50;5091680;28;20416;-63
2022/07/07 06:11:40;;;;;;;3.80;1.43;;;;;;;22.52;48.05;100867.72;5091198;28;20155;-63
2022/07/07 06:14:05;;;;;;;4.30;1.70;;;;;;;22.39;48.71;100862.63;5091290;28;20316;-63
2022/07/07 06:16:41;;;;;;;4.37;1.67;;;;;;;22.54;47.97;100853.78;5090846;28;20202;-63
2022/07/07 06:19:11;;;;;;;3.60;1.77;;;;;;;22.51;47.91;100842.22;5090907;28;20420;-63
2022/07/07 06:21:39;;;;;;;4.80;2.13;;;;;;;22.48;48.04;100849.59;5071015;28;20466;-63
2022/07/07 06:24:05;;;;;;;4.93;1.67;;;;;;;22.48;48.51;100851.66;5083601;28;20443;-63
2022/07/07 06:26:30;;;;;;;7.70;2.20;;;;;;;22.34;48.97;100854.34;5089412;28;20412;-63
2022/07/07 06:28:55;;;;;;;11.33;2.17;;;;;;;22.43;48.26;100855.66;5088782;28;20482;-63
2022/07/07 06:31:21;;;;;;;8.33;2.40;;;;;;;22.47;48.36;100859.44;5089293;28;20631;-63
2022/07/07 06:33:46;;;;;;;3.90;1.70;;;;;;;22.40;48.22;100872.88;5089342;28;20206;-63
2022/07/07 06:36:12;;;;;;;3.30;1.70;;;;;;;22.53;48.16;100863.63;5089088;28;20177;-63
2022/07/07 06:38:37;;;;;;;4.53;1.97;;;;;;;22.52;48.21;100861.16;5071211;28;20190;-63
2022/07/07 06:41:03;;;;;;;7.77;2.17;;;;;;;22.36;49.23;100858.47;5070518;28;20174;-63
2022/07/07 06:43:28;;;;;;;4.03;2.00;;;;;;;22.01;49.46;100866.66;5087111;28;20193;-63
2022/07/07 06:45:54;;;;;;;4.20;1.60;;;;;;;22.29;49.58;100869.91;5090108;28;20185;-63
2022/07/07 06:48:20;;;;;;;11.63;2.93;;;;;;;22.46;49.08;100872.19;5090616;28;20175;-63
2022/07/07 06:50:45;;;;;;;3.57;1.80;;;;;;;22.51;48.92;100877.59;5089521;28;20186;-63
2022/07/07 06:53:11;;;;;;;2.80;1.60;;;;;;;22.42;49.14;100877.03;5089482;28;20691;-63
2022/07/07 06:55:36;;;;;;;2.70;1.33;;;;;;;22.51;49.17;100866.06;5089808;28;20174;-63
2022/07/07 06:58:05;;;;;;;3.27;1.83;;;;;;;22.39;49.39;100865.50;5088886;28;20181;-63
2022/07/07 07:00:30;;;;;;;4.63;2.13;;;;;;;22.48;48.72;100871.81;5090181;28;20178;-63
2022/07/07 07:02:56;;;;;;;3.77;1.60;;;;;;;22.55;48.95;100860.34;5090222;28;20447;-63
2022/07/07 07:05:21;;;;;;;5.03;2.17;;;;;;;22.52;48.79;100864.03;5090309;28;20629;-63
2022/07/07 07:07:47;;;;;;;5.20;1.70;;;;;;;22.49;49.01;100868.53;5090160;28;20230;-63
2022/07/07 07:10:12;;;;;;;5.87;1.80;;;;;;;22.54;49.00;100867.34;5089973;28;20544;-63
2022/07/07 07:12:38;;;;;;;4.37;2.07;;;;;;;22.56;48.66;100862.84;5090303;28;20707;-63
2022/07/07 07:15:05;;;;;;;5.43;2.00;;;;;;;22.53;48.96;100872.25;5089181;28;20186;-63
2022/07/07 07:17:30;;;;;;;5.07;1.67;;;;;;;22.56;48.69;100876.38;5088892;28;20193;-63
2022/07/07 07:19:56;;;;;;;3.50;2.00;;;;;;;22.43;49.39;100875.81;5088577;28;20447;-63
2022/07/07 07:22:21;;;;;;;8.53;2.20;;;;;;;22.20;49.84;100872.25;5089427;28;20638;-63
2022/07/07 07:24:47;;;;;;;4.63;1.80;;;;;;;22.38;49.61;100881.09;5089207;28;20179;-63
2022/07/07 07:27:12;;;;;;;7.30;1.97;;;;;;;22.37;49.44;100877.38;5088780;28;20182;-63
2022/07/07 07:29:38;;;;;;;5.27;1.77;;;;;;;22.29;49.26;100884.28;5091150;28;20581;-63
2022/07/07 07:32:03;;;;;;;4.40;1.83;;;;;;;22.43;48.89;100887.31;5090900;28;20620;-62
2022/07/07 07:34:29;;;;;;;4.20;1.90;;;;;;;22.29;49.82;100889.22;5079372;28;20541;-63
2022/07/07 07:36:55;;;;;;;4.23;2.07;;;;;;;22.26;50.12;100881.34;5089893;28;20178;-63
2022/07/07 07:39:20;;;;;;;8.00;2.50;;;;;;;22.52;50.99;100890.75;5087970;28;20183;-63
2022/07/07 07:41:46;;;;;;;9.20;3.10;;;;;;;22.70;50.99;100891.78;5092338;28;20182;-63
2022/07/07 07:44:11;;;;;;;6.07;2.87;;;;;;;22.66;50.95;100896.66;5093687;28;20610;-63
2022/07/07 07:46:37;;;;;;;6.37;3.23;;;;;;;22.48;52.39;100892.75;5092375;28;20660;-63
2022/07/07 07:49:06;;;;;;;6.23;2.00;;;;;;;22.72;51.74;100897.16;5092142;28;20480;-63
2022/07/07 07:51:32;;;;;;;9.73;2.40;;;;;;;22.55;50.84;100895.72;5093474;28;20646;-63
2022/07/07 07:53:58;;;;;;;7.10;2.40;;;;;;;22.56;51.77;100894.50;5093335;28;20455;-63
2022/07/07 07:56:23;;;;;;;6.50;2.40;;;;;;;22.54;51.56;100902.72;5093401;28;20412;-63
2022/07/07 07:58:49;;;;;;;5.93;1.97;;;;;;;22.15;52.19;100897.66;5092987;28;20170;-63
2022/07/07 08:01:14;;;;;;;6.80;1.90;;;;;;;22.50;51.46;100910.47;5092179;28;20171;-63
2022/07/07 08:03:39;;;;;;;8.70;3.27;;;;;;;22.53;51.67;100905.97;5092648;28;20181;-63
2022/07/07 08:06:05;;;;;;;7.90;3.07;;;;;;;22.62;52.21;100906.50;5091807;28;20670;-63
2022/07/07 08:08:30;;;;;;;11.57;3.10;;;;;;;22.68;51.21;100904.91;5091630;28;20268;-63
2022/07/07 08:10:56;;;;;;;5.13;2.43;;;;;;;22.58;52.08;100909.31;5091979;28;20652;-63
2022/07/07 08:13:21;;;;;;;4.93;2.00;;;;;;;22.86;51.55;100903.88;5092084;28;20175;-63
2022/07/07 08:15:47;;;;;;;3.63;1.93;;;;;;;22.19;51.30;100901.41;5093171;28;20186;-63
2022/07/07 08:18:12;;;;;;;8.40;2.10;;;;;;;22.29;52.05;100907.31;5093056;28;20714;-63
2022/07/07 08:20:38;;;;;;;5.53;2.43;;;;;;;22.28;52.18;100897.00;5084958;28;20175;-63
2022/07/07 08:23:04;;;;;;;7.60;2.37;;;;;;;22.62;51.98;100892.09;5091478;28;20182;-63
2022/07/07 08:25:29;;;;;;;10.13;1.90;;;;;;;22.61;52.32;100888.38;5093041;28;20404;-63
2022/07/07 08:27:55;;;;;;;3.97;2.30;;;;;;;22.77;51.84;100882.41;5092852;28;20174;-63
2022/07/07 08:30:20;;;;;;;6.43;2.20;;;;;;;22.45;52.14;100895.59;5091913;28;20315;-63
2022/07/07 08:32:45;;;;;;;5.53;1.97;;;;;;;22.05;52.50;100895.47;5093001;28;20177;-63
2022/07/07 08:35:12;;;;;;;5.47;2.00;;;;;;;22.26;52.15;100901.47;5092178;28;20202;-63
2022/07/07 08:37:38;;;;;;;4.27;1.80;;;;;;;22.54;51.81;100896.97;5092903;28;20185;-63
2022/07/07 08:40:03;;;;;;;7.17;1.90;;;;;;;22.77;51.90;100900.47;5090610;28;20416;-64
2022/07/07 08:42:29;;;;;;;7.70;2.20;;;;;;;22.68;51.50;100899.97;5091395;28;20641;-64
2022/07/07 08:44:54;;;;;;;9.23;2.50;;;;;;;22.83;51.12;100896.00;5094006;28;20181;-63
2022/07/07 08:47:20;;;;;;;5.60;1.97;;;;;;;22.87;50.94;100896.88;5092871;28;20182;-63
2022/07/07 08:49:45;;;;;;;5.50;2.40;;;;;;;22.93;51.38;100900.25;5093410;28;20189;-63
2022/07/07 08:52:11;;;;;;;7.23;2.47;;;;;;;22.96;51.09;100902.31;5092440;28;20686;-62
2022/07/07 08:54:38;;;;;;;13.20;2.73;;;;;;;22.97;50.95;100906.88;5091188;28;20200;-62
2022/07/07 08:57:03;;;;;;;9.57;2.70;;;;;;;22.97;50.76;100901.91;5092955;28;20166;-62
2022/07/07 08:59:29;;;;;;;8.53;2.50;;;;;;;22.93;51.20;100903.94;5092014;28;20562;-63
2022/07/07 09:01:57;;;;;;;5.40;2.70;;;;;;;22.95;51.41;100898.63;5093351;28;20174;-62
2022/07/07 09:04:23;;;;;;;7.93;2.00;;;;;;;22.96;51.49;100900.28;5094080;28;20181;-62
2022/07/07 09:07:01;;;;;;;5.47;2.30;;;;;;;22.87;51.49;100898.97;5093925;28;20439;-62
2022/07/07 09:09:41;;;;;;;6.53;2.40;;;;;;;22.89;51.84;100900.22;5095311;28;20459;-62
2022/07/07 09:12:07;;;;;;;7.70;2.20;;;;;;;22.76;51.34;100881.56;5095331;28;20424;-63
2022/07/07 09:14:36;;;;;;;6.80;2.70;;;;;;;22.87;51.26;100891.13;5093299;28;20452;-63
2022/07/07 09:17:01;;;;;;;6.50;2.80;;;;;;;22.82;51.50;100874.22;5092780;28;20412;-63
2022/07/07 09:19:26;;;;;;;5.27;2.03;;;;;;;22.80;51.75;100872.94;5093831;28;20984;-63
2022/07/07 09:21:52;;;;;;;6.53;2.17;;;;;;;22.78;51.66;100858.13;5093951;28;20170;-63
2022/07/07 09:24:18;;;;;;;3.93;2.30;;;;;;;22.80;51.93;100858.56;5093479;28;20232;-63
2022/07/07 09:26:50;;;;;;;4.90;1.90;;;;;;;22.65;52.11;100860.47;5091932;28;20235;-63
2022/07/07 09:29:20;;;;;;;7.00;2.30;;;;;;;22.64;52.02;100853.06;5089478;28;20417;-63
2022/07/07 09:31:58;;;;;;;6.40;2.13;;;;;;;22.83;52.02;100854.91;5091152;28;20413;-63
2022/07/07 09:34:37;;;;;;;7.30;2.13;;;;;;;22.87;51.65;100862.31;5090770;28;20989;-63
2022/07/07 09:39:55;;;;;;;5.57;2.00;;;;;;;22.79;52.01;100849.09;5090577;28;20479;-63
2022/07/07 09:42:27;;;;;;;5.90;2.13;;;;;;;22.90;51.44;100854.94;5091250;28;20411;-63
2022/07/07 09:44:54;;;;;;;3.97;1.80;;;;;;;22.87;51.56;100856.56;5091464;28;20420;-63
2022/07/07 09:47:21;;;;;;;5.70;1.97;;;;;;;22.91;51.65;100874.72;5089531;28;20908;-63
2022/07/07 09:50:13;;;;;;;6.37;1.80;;;;;;;22.85;51.95;100875.47;5090915;28;20456;-63
2022/07/07 09:52:42;;;;;;;8.60;2.20;;;;;;;22.85;52.04;100878.34;5089623;28;20429;-63
2022/07/07 09:55:09;;;;;;;8.40;2.70;;;;;;;22.92;51.59;100875.56;5090474;28;20593;-63
2022/07/07 09:57:35;;;;;;;5.53;1.80;;;;;;;22.84;52.42;100874.66;5091640;28;20405;-63
2022/07/07 10:00:01;;;;;;;5.27;2.20;;;;;;;22.87;51.67;100881.69;5092624;28;20439;-63
2022/07/07 10:02:29;;;;;;;7.17;2.00;;;;;;;22.70;51.85;100877.38;5092302;28;20201;-63
2022/07/07 10:04:59;;;;;;;5.80;2.20;;;;;;;22.68;51.91;100884.75;5091567;28;20257;-63
2022/07/07 10:07:26;;;;;;;5.33;2.17;;;;;;;22.82;52.27;100885.72;5091297;28;20468;-63
2022/07/07 10:10:00;;;;;;;8.73;2.73;;;;;;;22.92;51.72;100876.38;5091983;28;20424;-63
2022/07/07 10:12:27;;;;;;;6.30;1.97;;;;;;;22.95;51.94;100869.81;5090896;28;20442;-63
2022/07/07 10:15:03;;;;;;;8.37;2.47;;;;;;;22.93;51.88;100872.25;5071562;28;20457;-63
2022/07/07 10:17:30;;;;;;;6.77;2.57;;;;;;;22.94;52.26;100875.97;5091223;28;20423;-63
2022/07/07 10:19:55;;;;;;;5.60;2.00;;;;;;;22.97;51.77;100873.13;5092582;28;20469;-63
2022/07/07 10:22:26;;;;;;;5.57;2.07;;;;;;;22.95;52.23;100863.22;5091680;28;20417;-63
2022/07/07 10:24:52;;;;;;;7.73;2.13;;;;;;;22.93;52.18;100878.00;5087001;28;20594;-63
2022/07/07 10:27:18;;;;;;;7.40;2.10;;;;;;;22.92;52.42;100870.59;5081155;28;20488;-63
2022/07/07 10:29:50;;;;;;;6.50;2.20;;;;;;;22.95;52.06;100881.34;5073877;28;20435;-63
2022/07/07 10:32:40;;;;;;;6.50;2.37;;;;;;;22.98;52.21;100879.72;5091935;28;20231;-62
2022/07/07 10:35:11;;;;;;;6.70;2.30;;;;;;;22.95;53.03;100883.38;5088968;28;20495;-63
2022/07/07 10:37:43;;;;;;;4.90;2.20;;;;;;;22.96;52.87;100874.34;5090689;28;20412;-63
2022/07/07 10:40:29;;;;;;;4.03;2.60;;;;;;;22.95;52.87;100869.81;5090873;28;20497;-62
2022/07/07 10:43:23;;;;;;;6.17;2.47;;;;;;;22.99;52.78;100864.09;5090472;28;20487;-62
2022/07/07 10:45:49;;;;;;;7.10;2.13;;;;;;;22.98;52.92;100871.88;5091781;28;20420;-62
2022/07/07 10:48:45;;;;;;;6.17;2.33;;;;;;;23.02;52.70;100874.81;5091500;28;20427;-62
2022/07/07 10:51:17;;;;;;;9.43;2.37;;;;;;;22.93;52.67;100874.31;5086439;28;20903;-62
2022/07/07 10:54:02;;;;;;;7.77;2.40;;;;;;;22.95;52.80;100874.75;5080762;28;20439;-62
2022/07/07 10:56:27;;;;;;;4.50;2.70;;;;;;;22.97;52.35;100878.06;5090268;28;20899;-62
2022/07/07 10:58:59;;;;;;;5.67;2.20;;;;;;;22.98;52.55;100886.28;5090734;28;20470;-62
2022/07/07 11:01:26;;;;;;;5.10;1.87;;;;;;;22.93;53.01;100889.53;5092152;28;20154;-62
2022/07/07 11:03:52;;;;;;;5.47;2.57;;;;;;;22.92;52.72;100887.88;5091438;28;20416;-62
2022/07/07 11:06:17;;;;;;;4.77;2.10;;;;;;;22.97;52.60;100893.28;5089993;28;20440;-62
2022/07/07 11:08:53;;;;;;;6.17;2.20;;;;;;;22.91;53.64;100897.75;5089462;28;20237;-62
2022/07/07 11:11:18;;;;;;;7.17;2.40;;;;;;;22.99;52.70;100898.66;5090231;28;20158;-62
2022/07/07 11:13:44;;;;;;;5.93;2.07;;;;;;;22.96;53.22;100902.31;5090480;28;20477;-62
2022/07/07 11:16:16;;;;;;;5.77;2.23;;;;;;;22.96;53.35;100905.19;5097532;28;20186;-62
2022/07/07 11:18:43;;;;;;;7.10;2.30;;;;;;;22.96;53.12;100894.50;5086238;28;20182;-62
2022/07/07 11:21:09;;;;;;;6.57;2.10;;;;;;;22.92;53.68;100898.59;5082339;28;20425;-62
2022/07/07 11:23:54;;;;;;;4.80;1.90;;;;;;;22.94;53.50;100901.91;5097025;28;21052;-62
2022/07/07 11:26:23;;;;;;;5.60;1.67;;;;;;;22.93;52.80;100908.88;5098214;28;20166;-62